Pagrindinis puslapis
METAR-TAF:

METAR-TAF

Oro uostai :

Westerland, Vokietija

platuma: 54-55N, ilguma: 008-21E, Aukštis: 16 m

Dabartinis oras

Ataskaita buvo paskelbta 44 minutes, ne 16:50 UTC
Vėjas 11 kt iš Pietvakarių
Temperatūra 15°C
Drėgmė 82%
Slėgis 1006 hPa
Matomumas 10 km arba daugiau
lietus,

METAR: EDXW 141650Z 22011KT 9999 -RA NSC 15/12 Q1006

Laikas: 19:34 (17:34 UTC)

Prognozė

Ataskaita buvo paskelbta 3 valandos ir 34 minutes, ne 14:00 UTC
Prognozė galioja nuo 14 metu 15 UTC su 14 metu 21 UTC
Vėjas 10 kt iš Pietų/Pietryčių
Matomumas 10 km arba daugiau
nėra debesų žemiau 1500 m ir nėra kamuolinių lietaus debesų

TAF: EDXW 141400Z 1415/1421 15010KT CAVOK

Orai ataskaitas ir orų prognozės (METAR, TAF).

turimą stotys yra geltonos ir raudonos taškus žemėlapyje.

Perkelti pele per norėdami pamatyti stoties vardą.

Tada spustelėkite, norėdami matyti oro stebėjimo ir prognozės.

Norėdami pakeisti žemėlapį: spustelėkite ant žalios mygtukų su juodo kryžiaus žemyn,; žalią mygtuką su brūkšneliu, jei norite nutolinti; arba žalių rodyklių gretimoms žemėlapius.


METAR-TAF: